createdAt,value
2019-01-15T00:00:40.438Z,91.90
2019-01-15T00:03:13.127Z,91.50
2019-01-15T00:05:45.536Z,91.40
2019-01-15T00:08:17.930Z,91.20
2019-01-15T00:10:50.382Z,90.90
2019-01-15T00:13:22.598Z,91.30
2019-01-15T00:15:55.218Z,91.30
2019-01-15T00:18:29.313Z,91.20
2019-01-15T00:21:03.279Z,91.10
2019-01-15T00:23:43.085Z,91.10
2019-01-15T00:26:15.610Z,91.10
2019-01-15T00:28:48.052Z,91.00
2019-01-15T00:31:20.497Z,91.20
2019-01-15T00:33:54.493Z,91.30
2019-01-15T00:36:26.938Z,91.30
2019-01-15T00:38:59.530Z,91.30
2019-01-15T00:41:31.829Z,91.40
2019-01-15T00:44:04.595Z,91.30
2019-01-15T00:46:48.016Z,91.10
2019-01-15T00:49:20.576Z,91.10
2019-01-15T00:51:53.142Z,91.00
2019-01-15T00:54:25.651Z,91.20
2019-01-15T00:56:58.093Z,91.00
2019-01-15T00:59:30.568Z,91.10
2019-01-15T01:02:03.200Z,91.20
2019-01-15T01:04:35.606Z,91.30
2019-01-15T01:07:08.194Z,91.50
2019-01-15T01:09:40.707Z,91.10
2019-01-15T01:12:13.100Z,90.90
2019-01-15T01:14:45.839Z,91.10
2019-01-15T01:17:18.245Z,91.10
2019-01-15T01:19:52.113Z,91.30
2019-01-15T01:22:24.830Z,91.10
2019-01-15T01:24:57.287Z,91.30
2019-01-15T01:27:50.972Z,91.50
2019-01-15T01:30:24.770Z,91.60
2019-01-15T01:32:58.632Z,91.90
2019-01-15T01:35:31.574Z,92.00
2019-01-15T01:38:04.209Z,92.00
2019-01-15T01:40:36.691Z,92.20
2019-01-15T01:43:09.117Z,92.30
2019-01-15T01:45:41.411Z,92.00
2019-01-15T01:48:13.783Z,92.60
2019-01-15T01:50:46.420Z,92.50
2019-01-15T01:53:19.047Z,92.60
2019-01-15T01:55:51.521Z,92.50
2019-01-15T01:58:24.253Z,92.70
2019-01-15T02:00:57.099Z,92.60
2019-01-15T02:03:29.338Z,92.80
2019-01-15T02:06:01.828Z,92.90
2019-01-15T02:08:34.181Z,92.60
2019-01-15T02:11:06.836Z,92.80
2019-01-15T02:13:39.072Z,92.20
2019-01-15T02:16:11.543Z,92.20
2019-01-15T02:18:43.813Z,91.70
2019-01-15T02:21:16.105Z,92.00
2019-01-15T02:23:48.627Z,92.10
2019-01-15T02:26:20.916Z,92.10
2019-01-15T02:28:53.335Z,92.60
2019-01-15T02:31:25.860Z,92.30
2019-01-15T02:33:58.314Z,92.20
2019-01-15T02:36:30.724Z,92.00
2019-01-15T02:39:04.939Z,92.20
2019-01-15T02:41:37.544Z,92.30
2019-01-15T02:44:10.315Z,92.20
2019-01-15T02:46:59.935Z,92.20
2019-01-15T02:49:32.268Z,92.30
2019-01-15T02:52:20.232Z,92.10
2019-01-15T02:54:52.677Z,92.00
2019-01-15T02:57:24.960Z,92.10
2019-01-15T02:59:57.433Z,92.00
2019-01-15T03:02:29.703Z,92.10
2019-01-15T03:05:02.140Z,92.30
2019-01-15T03:07:34.567Z,92.30
2019-01-15T03:10:08.979Z,92.60
2019-01-15T03:12:43.139Z,92.60
2019-01-15T03:15:15.887Z,92.50
2019-01-15T03:17:48.235Z,92.50
2019-01-15T03:20:20.612Z,92.50
2019-01-15T03:22:53.296Z,92.40
2019-01-15T03:25:25.790Z,92.50
2019-01-15T03:27:58.227Z,92.50
2019-01-15T03:30:30.803Z,92.40
2019-01-15T03:33:03.350Z,92.40
2019-01-15T03:35:35.789Z,92.30
2019-01-15T03:38:07.878Z,92.50
2019-01-15T03:40:40.611Z,92.70
2019-01-15T03:43:12.978Z,92.60
2019-01-15T03:45:45.192Z,92.50
2019-01-15T03:48:17.408Z,92.20
2019-01-15T03:50:50.734Z,92.00
2019-01-15T03:53:23.140Z,92.00
2019-01-15T03:55:55.617Z,92.10
2019-01-15T03:58:28.102Z,92.00
2019-01-15T04:01:00.353Z,91.90
2019-01-15T04:03:32.908Z,92.20
2019-01-15T04:06:05.523Z,92.20
2019-01-15T04:08:38.016Z,92.20
2019-01-15T04:11:12.064Z,92.00
2019-01-15T04:13:44.644Z,92.00
2019-01-15T04:16:16.913Z,91.60
2019-01-15T04:18:50.447Z,91.80
2019-01-15T04:21:22.950Z,91.90
2019-01-15T04:23:55.471Z,91.80
2019-01-15T04:26:27.939Z,91.90
2019-01-15T04:29:00.481Z,91.70
2019-01-15T04:31:33.052Z,91.60
2019-01-15T04:34:05.757Z,91.90
2019-01-15T04:36:38.106Z,91.80
2019-01-15T04:39:10.696Z,92.00
2019-01-15T04:41:42.954Z,92.00
2019-01-15T04:44:15.329Z,92.00
2019-01-15T04:46:47.968Z,92.10
2019-01-15T04:49:20.283Z,92.10
2019-01-15T04:51:52.643Z,92.20
2019-01-15T04:54:24.889Z,92.50
2019-01-15T04:56:57.820Z,92.40
2019-01-15T04:59:30.856Z,92.50
2019-01-15T05:02:03.354Z,92.70
2019-01-15T05:04:36.048Z,92.80
2019-01-15T05:07:08.645Z,92.90
2019-01-15T05:09:41.060Z,93.30
2019-01-15T05:12:13.468Z,93.40
2019-01-15T05:14:45.913Z,93.40
2019-01-15T05:17:18.436Z,93.40
2019-01-15T05:19:50.850Z,93.70
2019-01-15T05:22:23.389Z,93.70
2019-01-15T05:24:55.910Z,93.80
2019-01-15T05:27:28.481Z,94.10
2019-01-15T05:30:00.488Z,94.30
2019-01-15T05:32:32.929Z,94.40
2019-01-15T05:35:05.803Z,94.40
2019-01-15T05:37:38.589Z,94.50
2019-01-15T05:40:12.068Z,94.60
2019-01-15T05:42:44.572Z,94.70
2019-01-15T05:45:39.019Z,94.70
2019-01-15T05:48:30.381Z,94.40
2019-01-15T05:51:31.160Z,94.80
2019-01-15T05:54:03.536Z,94.70
2019-01-15T05:56:36.181Z,94.60
2019-01-15T05:59:08.724Z,94.60
2019-01-15T06:01:41.090Z,94.70
2019-01-15T06:04:13.661Z,95.20
2019-01-15T06:06:46.189Z,94.40
2019-01-15T06:09:18.482Z,94.40
2019-01-15T06:11:50.732Z,94.50
2019-01-15T06:14:23.023Z,94.40
2019-01-15T06:16:55.247Z,94.50
2019-01-15T06:19:27.692Z,94.60
2019-01-15T06:22:00.282Z,94.60
2019-01-15T06:24:33.044Z,94.60
2019-01-15T06:27:05.423Z,94.60
2019-01-15T06:29:37.910Z,94.80
2019-01-15T06:32:12.176Z,94.80
2019-01-15T06:34:44.580Z,94.60
2019-01-15T06:37:17.231Z,94.60
2019-01-15T06:39:49.521Z,94.70
2019-01-15T06:42:34.178Z,94.80
2019-01-15T06:45:10.514Z,95.00
2019-01-15T06:47:43.374Z,95.20
2019-01-15T06:50:16.889Z,98.80
2019-01-15T06:52:49.195Z,97.60
2019-01-15T06:55:21.827Z,95.70
2019-01-15T06:57:54.384Z,95.20
2019-01-15T07:00:28.633Z,95.30
2019-01-15T07:03:01.781Z,95.50
2019-01-15T07:05:34.423Z,95.40
2019-01-15T07:08:07.003Z,95.50
2019-01-15T07:10:41.167Z,95.60
2019-01-15T07:13:13.860Z,95.60
2019-01-15T07:15:46.315Z,95.60
2019-01-15T07:18:18.879Z,95.70
2019-01-15T07:20:51.494Z,96.10
2019-01-15T07:23:24.042Z,96.70
2019-01-15T07:25:56.400Z,95.80
2019-01-15T07:28:28.860Z,95.80
2019-01-15T07:31:02.270Z,95.90
2019-01-15T07:33:34.793Z,95.90
2019-01-15T07:36:07.142Z,96.00
2019-01-15T07:38:39.730Z,96.00
2019-01-15T07:41:12.431Z,96.00
2019-01-15T07:43:44.940Z,95.90
2019-01-15T07:46:17.407Z,95.60
2019-01-15T07:48:49.854Z,95.50
2019-01-15T07:51:22.468Z,95.20
2019-01-15T07:53:55.036Z,95.50
2019-01-15T07:56:27.567Z,95.30
2019-01-15T07:59:11.110Z,95.20
2019-01-15T08:01:44.226Z,95.30
2019-01-15T08:04:16.667Z,95.30
2019-01-15T08:06:49.162Z,95.00
2019-01-15T08:09:21.757Z,95.30
2019-01-15T08:11:54.340Z,94.70
2019-01-15T08:14:26.843Z,95.40
2019-01-15T08:16:59.338Z,94.20
2019-01-15T08:19:31.996Z,93.70
2019-01-15T08:22:04.690Z,93.50
2019-01-15T08:24:38.857Z,93.30
2019-01-15T08:27:11.305Z,93.60
2019-01-15T08:29:46.363Z,94.00
2019-01-15T08:32:19.225Z,94.30
2019-01-15T08:34:51.855Z,94.50
2019-01-15T08:37:24.535Z,94.70
2019-01-15T08:39:56.913Z,94.80
2019-01-15T08:42:29.274Z,94.80
2019-01-15T08:45:01.981Z,95.20
2019-01-15T08:47:36.398Z,95.70
2019-01-15T08:50:11.623Z,95.90
2019-01-15T08:52:56.360Z,95.90
2019-01-15T08:55:35.916Z,95.90
2019-01-15T08:58:08.233Z,96.30
2019-01-15T09:00:40.741Z,96.10
2019-01-15T09:03:13.083Z,96.20
2019-01-15T09:05:45.596Z,96.10
2019-01-15T09:08:17.988Z,96.00
2019-01-15T09:10:50.220Z,96.10
2019-01-15T09:13:22.740Z,96.00
2019-01-15T09:15:55.319Z,95.80
2019-01-15T09:18:28.835Z,95.60
2019-01-15T09:21:01.187Z,95.50
2019-01-15T09:23:33.793Z,95.70
2019-01-15T09:26:06.193Z,95.50
2019-01-15T09:28:38.465Z,95.00
2019-01-15T09:31:10.938Z,94.70
2019-01-15T09:33:43.562Z,94.80
2019-01-15T09:36:15.934Z,94.90
2019-01-15T09:38:48.588Z,94.80
2019-01-15T09:41:21.637Z,94.90
2019-01-15T09:43:55.225Z,94.60
2019-01-15T09:46:27.923Z,94.50
2019-01-15T09:49:00.463Z,93.90
2019-01-15T09:51:33.078Z,94.00
2019-01-15T09:54:05.844Z,93.90
2019-01-15T09:56:38.084Z,93.80
2019-01-15T09:59:10.324Z,94.00
2019-01-15T10:01:42.758Z,93.90
2019-01-15T10:04:15.240Z,93.60
2019-01-15T10:06:47.663Z,93.30
2019-01-15T10:09:20.188Z,93.30
2019-01-15T10:11:52.541Z,93.60
2019-01-15T10:14:25.016Z,93.20
2019-01-15T10:16:57.486Z,92.90
2019-01-15T10:19:30.025Z,92.70
2019-01-15T10:22:02.469Z,92.50
2019-01-15T10:24:35.039Z,92.30
2019-01-15T10:27:07.818Z,92.40
2019-01-15T10:29:40.360Z,92.30
2019-01-15T10:32:47.368Z,92.80
2019-01-15T10:35:52.061Z,93.30
2019-01-15T10:38:25.584Z,93.60
2019-01-15T10:40:59.791Z,93.40
2019-01-15T10:43:34.271Z,93.40
2019-01-15T10:46:07.913Z,93.90
2019-01-15T10:48:40.337Z,94.10
2019-01-15T10:51:12.666Z,93.90
2019-01-15T10:53:44.916Z,94.20
2019-01-15T10:56:17.532Z,94.30
2019-01-15T10:58:49.959Z,94.00
2019-01-15T11:01:22.339Z,93.80
2019-01-15T11:03:54.653Z,93.60
2019-01-15T11:06:27.893Z,93.50
2019-01-15T11:09:00.688Z,94.20
2019-01-15T11:11:33.410Z,93.30
2019-01-15T11:14:06.385Z,93.60
2019-01-15T11:16:39.284Z,93.50
2019-01-15T11:19:11.599Z,93.40
2019-01-15T11:21:43.838Z,93.20
2019-01-15T11:24:16.405Z,93.00
2019-01-15T11:26:48.842Z,93.30
2019-01-15T11:29:21.151Z,93.30
2019-01-15T11:31:53.855Z,93.30
2019-01-15T11:34:41.390Z,93.30
2019-01-15T11:37:13.739Z,93.10
2019-01-15T11:39:46.141Z,93.10
2019-01-15T11:42:18.461Z,93.20
2019-01-15T11:44:51.006Z,92.90
2019-01-15T11:47:23.356Z,93.10
2019-01-15T11:49:55.859Z,93.30
2019-01-15T11:52:28.283Z,93.20
2019-01-15T11:55:00.706Z,93.20
2019-01-15T11:57:33.278Z,93.30
2019-01-15T12:00:07.965Z,93.70
2019-01-15T12:03:01.205Z,93.50
2019-01-15T12:05:47.766Z,93.70
2019-01-15T12:08:38.215Z,94.00
2019-01-15T12:11:29.579Z,93.80
2019-01-15T12:14:26.322Z,94.10
2019-01-15T12:17:16.463Z,94.10
2019-01-15T12:20:08.868Z,94.20
2019-01-15T12:23:02.893Z,94.50
2019-01-15T12:25:52.651Z,94.40
2019-01-15T12:28:56.046Z,94.60
2019-01-15T12:31:44.392Z,94.70
2019-01-15T12:34:35.524Z,95.20
2019-01-15T12:37:21.675Z,95.00
2019-01-15T12:40:17.022Z,95.30
2019-01-15T12:43:36.527Z,95.10
2019-01-15T12:46:26.887Z,95.10
2019-01-15T12:49:21.094Z,95.00
2019-01-15T12:52:22.993Z,94.90
2019-01-15T12:55:14.354Z,94.80
2019-01-15T12:58:05.738Z,95.20
2019-01-15T13:00:59.994Z,94.50
2019-01-15T13:03:49.603Z,94.50
2019-01-15T13:06:39.580Z,94.40
2019-01-15T13:09:41.369Z,94.40
2019-01-15T13:12:31.775Z,94.10
2019-01-15T13:15:34.813Z,94.10
2019-01-15T13:18:26.215Z,93.70
2019-01-15T13:21:17.626Z,93.90
2019-01-15T13:24:24.150Z,93.20
2019-01-15T13:27:15.391Z,93.50
2019-01-15T13:30:16.715Z,93.30
2019-01-15T13:33:06.830Z,93.30
2019-01-15T13:36:13.122Z,93.10
2019-01-15T13:39:02.206Z,93.50
2019-01-15T13:41:48.071Z,93.10
2019-01-15T13:44:38.149Z,93.00
2019-01-15T13:47:31.647Z,92.90
2019-01-15T13:50:22.552Z,92.70
2019-01-15T13:53:16.808Z,92.60
2019-01-15T13:56:09.472Z,92.90
2019-01-15T13:59:00.869Z,92.80
2019-01-15T14:01:50.963Z,92.60
2019-01-15T14:05:00.698Z,92.70
2019-01-15T14:07:47.440Z,92.90
2019-01-15T14:10:31.936Z,93.10
2019-01-15T14:13:22.106Z,92.80
2019-01-15T14:16:15.156Z,93.00
2019-01-15T14:18:58.466Z,93.10
2019-01-15T14:21:48.339Z,92.80
2019-01-15T14:24:31.293Z,92.90
2019-01-15T14:27:21.294Z,92.70
2019-01-15T14:30:15.313Z,92.70
2019-01-15T14:33:05.077Z,92.50
2019-01-15T14:36:09.001Z,92.50
2019-01-15T14:38:59.017Z,92.40
2019-01-15T14:41:59.288Z,92.20
2019-01-15T14:44:49.212Z,92.20
2019-01-15T14:47:58.634Z,92.00
2019-01-15T14:50:49.092Z,92.10
2019-01-15T14:53:39.024Z,92.00
2019-01-15T14:56:32.909Z,92.20
2019-01-15T14:59:36.272Z,91.90
2019-01-15T15:02:36.763Z,92.10
2019-01-15T15:05:31.334Z,91.80
2019-01-15T15:08:22.555Z,91.80
2019-01-15T15:11:23.486Z,91.80
2019-01-15T15:14:23.661Z,91.80
2019-01-15T15:17:13.336Z,91.90
2019-01-15T15:20:04.326Z,92.00
2019-01-15T15:23:00.153Z,92.30
2019-01-15T15:25:45.660Z,92.50
2019-01-15T15:28:35.410Z,92.70
2019-01-15T15:31:32.934Z,92.90
2019-01-15T15:34:36.331Z,93.00
2019-01-15T15:37:26.628Z,93.10
2019-01-15T15:40:16.514Z,93.50
2019-01-15T15:43:07.989Z,93.70
2019-01-15T15:46:11.172Z,93.50
2019-01-15T15:48:56.831Z,93.60
2019-01-15T15:51:48.102Z,93.90
2019-01-15T15:54:48.615Z,93.90
2019-01-15T15:57:40.348Z,93.90
2019-01-15T16:00:44.046Z,94.00
2019-01-15T16:03:38.639Z,93.80
2019-01-15T16:06:29.801Z,93.70
2019-01-15T16:09:32.862Z,93.80
2019-01-15T16:12:23.682Z,93.70
2019-01-15T16:15:24.324Z,93.60
2019-01-15T16:18:10.593Z,93.90
2019-01-15T16:20:52.602Z,93.90
2019-01-15T16:23:55.892Z,93.80
2019-01-15T16:26:56.248Z,93.80
2019-01-15T16:29:46.609Z,93.80
2019-01-15T16:32:49.265Z,93.70
2019-01-15T16:35:46.545Z,93.90
2019-01-15T16:38:34.897Z,93.90
2019-01-15T16:41:24.826Z,93.90
2019-01-15T16:44:23.596Z,94.10
2019-01-15T16:47:09.613Z,94.00
2019-01-15T16:49:53.015Z,94.50
2019-01-15T16:52:44.833Z,94.00
2019-01-15T16:55:35.148Z,94.00
2019-01-15T16:58:22.044Z,94.10
2019-01-15T17:01:12.235Z,94.10
2019-01-15T17:04:02.160Z,94.00
2019-01-15T17:06:53.474Z,93.90
2019-01-15T17:09:43.479Z,94.10
2019-01-15T17:13:00.532Z,94.00
2019-01-15T17:15:50.299Z,94.20
2019-01-15T17:18:45.243Z,94.00
2019-01-15T17:21:36.849Z,93.90
2019-01-15T17:24:34.506Z,94.00
2019-01-15T17:27:31.052Z,93.90
2019-01-15T17:30:44.899Z,94.00
2019-01-15T17:33:41.537Z,93.90
2019-01-15T17:36:31.943Z,93.90
2019-01-15T17:39:34.202Z,93.90
2019-01-15T17:42:35.031Z,93.70
2019-01-15T17:45:27.399Z,93.80
2019-01-15T17:48:28.638Z,93.90
2019-01-15T17:51:38.673Z,93.90
2019-01-15T17:54:38.287Z,93.90
2019-01-15T17:57:45.103Z,94.00
2019-01-15T18:00:40.229Z,93.90
2019-01-15T18:03:43.794Z,94.00
2019-01-15T18:06:34.187Z,93.80
2019-01-15T18:09:28.108Z,93.90
2019-01-15T18:12:18.675Z,93.90
2019-01-15T18:15:08.862Z,93.90
2019-01-15T18:18:03.060Z,93.90
2019-01-15T18:21:04.741Z,94.00
2019-01-15T18:24:08.436Z,94.10
2019-01-15T18:26:59.899Z,94.30
2019-01-15T18:29:51.229Z,94.20
2019-01-15T18:32:41.170Z,94.60
2019-01-15T18:35:35.818Z,94.40
2019-01-15T18:38:24.524Z,94.30
2019-01-15T18:41:14.712Z,94.20
2019-01-15T18:44:06.615Z,94.60
2019-01-15T18:46:57.930Z,94.90
2019-01-15T18:49:52.369Z,94.40
2019-01-15T18:52:53.632Z,94.40
2019-01-15T18:55:43.502Z,94.30
2019-01-15T18:58:50.178Z,95.50
2019-01-15T19:01:38.202Z,94.70
2019-01-15T19:04:35.266Z,94.90
2019-01-15T19:07:40.230Z,95.10
2019-01-15T19:10:43.424Z,95.10
2019-01-15T19:13:32.228Z,94.90
2019-01-15T19:16:26.975Z,95.00
2019-01-15T19:19:17.466Z,95.00
2019-01-15T19:22:26.994Z,95.10
2019-01-15T19:25:20.545Z,95.30
2019-01-15T19:28:11.841Z,95.40
2019-01-15T19:31:09.218Z,95.40
2019-01-15T19:34:06.703Z,95.70
2019-01-15T19:37:17.748Z,95.70
2019-01-15T19:40:07.452Z,95.70
2019-01-15T19:42:48.862Z,95.90
2019-01-15T19:45:38.741Z,96.00
2019-01-15T19:48:28.597Z,96.10
2019-01-15T19:51:20.209Z,96.40
2019-01-15T19:54:23.383Z,96.40
2019-01-15T19:57:30.167Z,96.50
2019-01-15T20:00:21.565Z,97.00
2019-01-15T20:03:16.928Z,97.20
2019-01-15T20:06:04.235Z,97.10
2019-01-15T20:08:58.279Z,97.20
2019-01-15T20:11:55.497Z,97.40
2019-01-15T20:14:46.733Z,97.90
2019-01-15T20:17:32.096Z,98.00
2019-01-15T20:20:22.728Z,97.90
2019-01-15T20:23:28.793Z,97.90
2019-01-15T20:26:38.484Z,98.20
2019-01-15T20:29:39.024Z,98.30
2019-01-15T20:32:36.491Z,98.60
2019-01-15T20:35:37.689Z,98.60
2019-01-15T20:38:26.593Z,98.90
2019-01-15T20:41:17.391Z,99.50
2019-01-15T20:44:07.401Z,99.20
2019-01-15T20:47:04.464Z,99.40
2019-01-15T20:49:54.550Z,99.40
2019-01-15T20:53:01.128Z,99.70
2019-01-15T20:55:57.639Z,99.80
2019-01-15T20:58:56.614Z,99.70
2019-01-15T21:01:36.801Z,99.90
2019-01-15T21:04:40.322Z,99.90
2019-01-15T21:07:37.674Z,99.90
2019-01-15T21:10:31.897Z,99.90
2019-01-15T21:13:27.500Z,99.90
2019-01-15T21:16:24.460Z,99.90
2019-01-15T21:19:21.230Z,99.90
2019-01-15T21:22:14.802Z,99.90
2019-01-15T21:24:58.683Z,99.90
2019-01-15T21:27:41.843Z,99.90
2019-01-15T21:30:52.110Z,99.90
2019-01-15T21:33:42.694Z,99.90
2019-01-15T21:36:39.858Z,99.90
2019-01-15T21:39:37.338Z,99.90
2019-01-15T21:42:27.374Z,99.90
2019-01-15T21:45:24.760Z,99.90
2019-01-15T21:48:08.481Z,99.90
2019-01-15T21:51:17.705Z,99.90
2019-01-15T21:54:15.262Z,99.90
2019-01-15T21:57:15.985Z,99.90
2019-01-15T22:00:07.129Z,99.80
2019-01-15T22:03:05.080Z,99.90
2019-01-15T22:05:56.441Z,99.90
2019-01-15T22:08:51.349Z,99.70
2019-01-15T22:12:00.766Z,99.70
2019-01-15T22:14:55.392Z,99.50
2019-01-15T22:17:49.579Z,99.60
2019-01-15T22:20:39.388Z,99.70
2019-01-15T22:23:29.834Z,99.50
2019-01-15T22:26:20.983Z,99.40
2019-01-15T22:29:13.832Z,99.30
2019-01-15T22:32:13.890Z,99.30
2019-01-15T22:35:03.626Z,99.30
2019-01-15T22:37:53.561Z,99.40
2019-01-15T22:40:48.171Z,99.30
2019-01-15T22:43:42.841Z,99.40
2019-01-15T22:46:39.813Z,99.40
2019-01-15T22:49:32.208Z,99.40
2019-01-15T22:52:28.280Z,99.40
2019-01-15T22:55:14.383Z,99.40
2019-01-15T22:58:20.997Z,99.50
2019-01-15T23:01:14.371Z,99.60
2019-01-15T23:04:13.226Z,99.60
2019-01-15T23:07:03.203Z,99.90
2019-01-15T23:09:58.451Z,99.80
2019-01-15T23:12:42.839Z,99.70
2019-01-15T23:15:34.900Z,99.70
2019-01-15T23:18:32.347Z,99.80
2019-01-15T23:21:39.069Z,99.90
2019-01-15T23:24:28.991Z,99.80
2019-01-15T23:27:18.682Z,99.90
2019-01-15T23:30:08.534Z,99.90
2019-01-15T23:32:58.113Z,99.90
2019-01-15T23:35:43.196Z,99.90
2019-01-15T23:38:49.666Z,99.80
2019-01-15T23:41:39.575Z,99.80
2019-01-15T23:44:27.204Z,99.70
2019-01-15T23:47:27.189Z,99.80
2019-01-15T23:50:23.011Z,99.60
2019-01-15T23:53:14.991Z,99.70
2019-01-15T23:56:04.674Z,99.60
2019-01-15T23:59:04.797Z,99.50
